createdAt,value
2022-09-06T00:00:44.468Z,72.64
2022-09-06T00:03:11.039Z,73.07
2022-09-06T00:05:37.950Z,73.53
2022-09-06T00:08:05.952Z,74.18
2022-09-06T00:10:33.513Z,74.25
2022-09-06T00:13:02.199Z,73.72
2022-09-06T00:15:28.929Z,73.82
2022-09-06T00:17:58.242Z,74.65
2022-09-06T00:20:27.319Z,74.03
2022-09-06T00:23:01.426Z,73.76
2022-09-06T00:25:29.434Z,73.60
2022-09-06T00:27:57.361Z,73.33
2022-09-06T00:30:24.866Z,73.29
2022-09-06T00:32:51.436Z,73.66
2022-09-06T00:35:18.530Z,73.48
2022-09-06T00:37:45.350Z,73.75
2022-09-06T00:40:12.596Z,73.47
2022-09-06T00:42:39.069Z,73.58
2022-09-06T00:45:07.414Z,73.65
2022-09-06T00:47:35.356Z,73.47
2022-09-06T00:50:02.814Z,73.33
2022-09-06T00:52:30.705Z,73.22
2022-09-06T00:54:57.457Z,72.80
2022-09-06T00:57:27.107Z,73.73
2022-09-06T00:59:55.694Z,74.56
2022-09-06T01:02:22.426Z,74.63
2022-09-06T01:04:51.240Z,74.80
2022-09-06T01:07:51.610Z,74.68
2022-09-06T01:10:47.274Z,73.87
2022-09-06T01:13:13.707Z,74.36
2022-09-06T01:15:52.884Z,74.48
2022-09-06T01:18:34.426Z,74.17
2022-09-06T01:21:03.778Z,74.08
2022-09-06T01:24:04.358Z,73.38
2022-09-06T01:26:49.471Z,73.65
2022-09-06T01:29:46.932Z,74.93
2022-09-06T01:32:51.027Z,75.47
2022-09-06T01:35:37.780Z,75.52
2022-09-06T01:38:06.051Z,76.67
2022-09-06T01:40:36.421Z,75.76
2022-09-06T01:43:10.678Z,75.68
2022-09-06T01:45:58.987Z,76.09
2022-09-06T01:49:02.317Z,76.46
2022-09-06T01:51:44.381Z,76.32
2022-09-06T01:54:36.137Z,76.27
2022-09-06T01:57:11.691Z,76.01
2022-09-06T01:59:50.293Z,75.74
2022-09-06T02:02:28.242Z,75.69
2022-09-06T02:05:06.439Z,75.70
2022-09-06T02:07:35.665Z,75.86
2022-09-06T02:10:25.571Z,75.18
2022-09-06T02:12:56.455Z,74.51
2022-09-06T02:15:31.270Z,74.41
2022-09-06T02:18:06.112Z,74.38
2022-09-06T02:20:37.577Z,74.85
2022-09-06T02:23:06.907Z,74.44
2022-09-06T02:25:40.095Z,74.58
2022-09-06T02:28:08.060Z,74.76
2022-09-06T02:30:42.907Z,74.44
2022-09-06T02:33:18.669Z,74.52
2022-09-06T02:35:48.897Z,75.39
2022-09-06T02:38:16.291Z,75.81
2022-09-06T02:40:44.261Z,75.63
2022-09-06T02:43:10.704Z,75.67
2022-09-06T02:45:37.487Z,75.63
2022-09-06T02:48:04.072Z,75.67
2022-09-06T02:50:30.902Z,75.74
2022-09-06T02:53:09.972Z,76.35
2022-09-06T02:55:37.781Z,76.44
2022-09-06T02:58:05.166Z,75.98
2022-09-06T03:00:31.690Z,75.99
2022-09-06T03:02:58.285Z,76.79
2022-09-06T03:05:26.179Z,77.49
2022-09-06T03:07:53.269Z,78.09
2022-09-06T03:10:20.387Z,78.41
2022-09-06T03:12:47.215Z,79.01
2022-09-06T03:15:15.573Z,80.14
2022-09-06T03:17:42.229Z,79.75
2022-09-06T03:20:09.929Z,79.04
2022-09-06T03:22:39.816Z,79.45
2022-09-06T03:25:07.810Z,80.55
2022-09-06T03:27:34.555Z,80.65
2022-09-06T03:30:01.040Z,80.01
2022-09-06T03:32:27.486Z,80.45
2022-09-06T03:34:54.006Z,79.50
2022-09-06T03:37:20.486Z,79.49
2022-09-06T03:39:47.009Z,80.14
2022-09-06T03:42:13.513Z,79.86
2022-09-06T03:44:39.990Z,79.15
2022-09-06T03:47:06.508Z,78.91
2022-09-06T03:49:32.955Z,79.69
2022-09-06T03:51:59.407Z,79.54
2022-09-06T03:54:28.003Z,80.61
2022-09-06T03:56:55.614Z,80.97
2022-09-06T03:59:22.043Z,80.74
2022-09-06T04:01:48.559Z,80.71
2022-09-06T04:04:15.050Z,80.20
2022-09-06T04:06:41.492Z,80.66
2022-09-06T04:09:07.939Z,81.06
2022-09-06T04:11:34.381Z,80.93
2022-09-06T04:14:00.831Z,81.04
2022-09-06T04:16:27.361Z,81.25
2022-09-06T04:18:53.880Z,80.42
2022-09-06T04:21:20.350Z,81.15
2022-09-06T04:23:46.800Z,80.62
2022-09-06T04:26:13.294Z,79.92
2022-09-06T04:28:39.825Z,80.21
2022-09-06T04:31:06.334Z,80.44
2022-09-06T04:33:34.814Z,80.36
2022-09-06T04:36:02.838Z,80.57
2022-09-06T04:38:30.857Z,80.55
2022-09-06T04:40:57.328Z,81.30
2022-09-06T04:43:24.182Z,82.56
2022-09-06T04:45:50.747Z,82.07
2022-09-06T04:48:17.494Z,82.32
2022-09-06T04:50:44.031Z,82.86
2022-09-06T04:53:13.635Z,81.58
2022-09-06T04:55:40.359Z,81.98
2022-09-06T04:58:06.969Z,82.56
2022-09-06T05:00:36.084Z,82.32
2022-09-06T05:03:02.608Z,82.25
2022-09-06T05:05:29.077Z,82.55
2022-09-06T05:07:56.297Z,82.96
2022-09-06T05:10:24.288Z,83.51
2022-09-06T05:12:52.921Z,83.28
2022-09-06T05:15:21.679Z,82.48
2022-09-06T05:17:48.371Z,83.22
2022-09-06T05:20:14.845Z,82.85
2022-09-06T05:22:41.754Z,81.64
2022-09-06T05:25:09.302Z,81.77
2022-09-06T05:27:36.322Z,81.83
2022-09-06T05:30:04.145Z,81.63
2022-09-06T05:32:30.673Z,81.34
2022-09-06T05:34:57.116Z,80.76
2022-09-06T05:37:23.842Z,80.38
2022-09-06T05:39:50.346Z,80.31
2022-09-06T05:42:19.311Z,81.54
2022-09-06T05:44:45.983Z,81.46
2022-09-06T05:47:12.607Z,80.91
2022-09-06T05:49:39.110Z,80.88
2022-09-06T05:52:05.556Z,80.13
2022-09-06T05:54:32.013Z,80.69
2022-09-06T05:56:58.483Z,80.41
2022-09-06T05:59:25.083Z,80.25
2022-09-06T06:01:53.285Z,80.24
2022-09-06T06:04:21.018Z,80.13
2022-09-06T06:06:48.959Z,80.46
2022-09-06T06:09:16.658Z,79.27
2022-09-06T06:11:43.638Z,78.50
2022-09-06T06:14:10.549Z,78.16
2022-09-06T06:16:37.170Z,78.94
2022-09-06T06:19:03.706Z,79.27
2022-09-06T06:21:31.864Z,78.79
2022-09-06T06:24:01.421Z,79.59
2022-09-06T06:26:30.012Z,79.95
2022-09-06T06:28:58.868Z,79.70
2022-09-06T06:31:25.529Z,78.75
2022-09-06T06:33:52.088Z,78.79
2022-09-06T06:36:21.807Z,79.43
2022-09-06T06:38:49.827Z,79.38
2022-09-06T06:41:19.319Z,78.84
2022-09-06T06:43:45.947Z,78.91
2022-09-06T06:46:17.318Z,78.46
2022-09-06T06:48:45.540Z,77.46
2022-09-06T06:51:17.383Z,76.83
2022-09-06T06:53:44.956Z,77.33
2022-09-06T06:56:28.729Z,77.51
2022-09-06T06:58:57.714Z,77.46
2022-09-06T07:01:26.395Z,77.51
2022-09-06T07:03:53.161Z,76.79
2022-09-06T07:06:21.000Z,76.55
2022-09-06T07:08:47.885Z,77.24
2022-09-06T07:11:17.274Z,77.39
2022-09-06T07:13:45.241Z,77.47
2022-09-06T07:16:18.451Z,77.90
2022-09-06T07:18:45.885Z,78.75
2022-09-06T07:26:31.615Z,80.61
2022-09-06T07:29:00.308Z,82.41
2022-09-06T07:34:15.047Z,87.90
2022-09-06T07:36:41.482Z,89.78
2022-09-06T07:39:07.965Z,90.93
2022-09-06T07:41:34.439Z,90.92
2022-09-06T07:44:00.869Z,92.19
2022-09-06T07:46:27.425Z,93.05
2022-09-06T07:48:53.892Z,92.44
2022-09-06T07:51:21.940Z,92.33
2022-09-06T07:54:07.013Z,92.37
2022-09-06T07:56:39.784Z,93.34
2022-09-06T07:59:06.361Z,92.68
2022-09-06T08:01:37.402Z,91.16
2022-09-06T08:04:13.129Z,89.30
2022-09-06T08:09:33.021Z,86.05
2022-09-06T08:11:59.841Z,85.44
2022-09-06T08:14:26.270Z,85.00
2022-09-06T08:16:52.714Z,83.97
2022-09-06T08:19:19.256Z,81.14
2022-09-06T08:21:45.716Z,75.41
2022-09-06T08:24:12.227Z,72.20
2022-09-06T08:26:40.533Z,67.80
2022-09-06T08:29:08.696Z,67.75
2022-09-06T08:31:38.483Z,66.75
2022-09-06T08:34:05.432Z,64.29
2022-09-06T08:36:32.279Z,63.22
2022-09-06T08:39:00.309Z,61.36
2022-09-06T08:41:48.803Z,61.36
2022-09-06T08:47:20.576Z,61.48
2022-09-06T08:50:06.686Z,58.57
2022-09-06T08:53:18.307Z,59.19
2022-09-06T08:55:45.607Z,59.09
2022-09-06T08:58:30.901Z,57.94
2022-09-06T09:01:12.579Z,54.25
2022-09-06T09:03:42.068Z,51.53
2022-09-06T09:06:10.188Z,51.33
2022-09-06T09:08:55.291Z,49.26
2022-09-06T09:11:25.299Z,45.16
2022-09-06T09:14:02.737Z,41.93
2022-09-06T09:16:29.227Z,41.69
2022-09-06T09:19:00.307Z,39.31
2022-09-06T09:21:30.737Z,40.43
2022-09-06T09:24:04.290Z,40.13
2022-09-06T09:26:42.182Z,41.54
2022-09-06T09:29:14.010Z,37.93
2022-09-06T09:31:53.420Z,43.25
2022-09-06T09:34:35.059Z,40.37
2022-09-06T09:40:14.971Z,37.10
2022-09-06T09:42:42.231Z,36.59
2022-09-06T09:45:21.082Z,36.73
2022-09-06T09:47:47.622Z,35.17
2022-09-06T09:50:31.754Z,37.73
2022-09-06T09:53:10.262Z,37.25
2022-09-06T09:55:37.459Z,37.08
2022-09-06T09:58:05.393Z,36.50
2022-09-06T10:00:40.290Z,33.80
2022-09-06T10:03:29.434Z,33.96
2022-09-06T10:06:02.621Z,32.66
2022-09-06T10:08:33.062Z,31.50
2022-09-06T10:10:59.678Z,31.88
2022-09-06T10:13:29.705Z,34.20
2022-09-06T10:15:58.688Z,36.36
2022-09-06T10:18:35.938Z,37.10
2022-09-06T10:21:05.679Z,40.65
2022-09-06T10:26:51.389Z,39.04
2022-09-06T10:29:53.115Z,40.68
2022-09-06T10:32:34.620Z,44.57
2022-09-06T10:35:05.857Z,43.45
2022-09-06T10:37:55.178Z,44.77
2022-09-06T10:40:30.450Z,45.45
2022-09-06T10:43:00.427Z,46.10
2022-09-06T10:45:37.160Z,47.36
2022-09-06T10:48:04.862Z,48.44
2022-09-06T10:50:52.871Z,49.78
2022-09-06T10:53:22.272Z,51.24
2022-09-06T10:56:01.658Z,52.35
2022-09-06T11:01:39.276Z,55.65
2022-09-06T11:04:12.707Z,57.14
2022-09-06T11:06:47.595Z,57.56
2022-09-06T11:09:39.222Z,59.50
2022-09-06T11:12:30.417Z,60.70
2022-09-06T11:14:56.883Z,61.48
2022-09-06T11:17:36.372Z,60.93
2022-09-06T11:20:13.811Z,62.03
2022-09-06T11:23:34.719Z,63.32
2022-09-06T11:26:04.342Z,63.84
2022-09-06T11:28:35.806Z,65.73
2022-09-06T11:31:04.095Z,68.06
2022-09-06T11:33:39.771Z,68.13
2022-09-06T11:36:39.629Z,70.85
2022-09-06T11:39:08.839Z,72.63
2022-09-06T11:41:39.926Z,74.07
2022-09-06T11:44:09.851Z,75.42
2022-09-06T11:46:36.510Z,77.08
2022-09-06T11:49:06.814Z,77.54
2022-09-06T11:51:40.438Z,78.95
2022-09-06T11:54:47.101Z,80.42
2022-09-06T11:57:17.359Z,78.99
2022-09-06T11:59:46.380Z,79.62
2022-09-06T12:02:41.145Z,78.29
2022-09-06T12:05:11.955Z,77.13
2022-09-06T12:07:59.282Z,77.01
2022-09-06T12:10:31.612Z,76.60
2022-09-06T12:12:59.045Z,74.77
2022-09-06T12:15:32.764Z,76.85
2022-09-06T12:18:00.627Z,76.82
2022-09-06T12:21:03.069Z,75.70
2022-09-06T12:23:35.397Z,75.88
2022-09-06T12:26:06.810Z,73.70
2022-09-06T12:29:04.111Z,79.09
2022-09-06T12:31:46.786Z,74.53
2022-09-06T12:34:19.063Z,75.17
2022-09-06T12:36:55.598Z,77.96
2022-09-06T12:39:22.557Z,79.63
2022-09-06T12:41:54.966Z,79.03
2022-09-06T12:44:37.152Z,77.13
2022-09-06T12:47:10.742Z,76.53
2022-09-06T12:49:37.432Z,75.45
2022-09-06T12:52:16.089Z,75.94
2022-09-06T12:54:50.226Z,78.64
2022-09-06T12:57:23.334Z,75.46
2022-09-06T12:59:55.473Z,75.43
2022-09-06T13:03:06.199Z,74.78
2022-09-06T13:05:32.925Z,73.45
2022-09-06T13:08:03.168Z,74.28
2022-09-06T13:10:29.962Z,75.25
2022-09-06T13:12:58.658Z,73.79
2022-09-06T13:15:31.234Z,73.64
2022-09-06T13:18:20.138Z,72.18
2022-09-06T13:20:59.081Z,71.73
2022-09-06T13:23:25.695Z,70.26
2022-09-06T13:25:53.653Z,71.41
2022-09-06T13:28:29.461Z,71.72
2022-09-06T13:31:14.365Z,72.16
2022-09-06T13:33:41.930Z,72.91
2022-09-06T13:36:08.653Z,74.83
2022-09-06T13:38:45.548Z,75.71
2022-09-06T13:41:35.139Z,76.23
2022-09-06T13:44:16.669Z,76.26
2022-09-06T13:46:43.449Z,76.35
2022-09-06T13:49:09.993Z,78.42
2022-09-06T13:51:38.763Z,79.07
2022-09-06T13:54:07.786Z,79.87
2022-09-06T13:56:35.370Z,78.15
2022-09-06T13:59:03.292Z,77.79
2022-09-06T14:01:30.332Z,78.67
2022-09-06T14:03:57.240Z,77.57
2022-09-06T14:06:23.887Z,81.11
2022-09-06T14:09:06.237Z,75.91
2022-09-06T14:11:33.186Z,75.78
2022-09-06T14:13:59.731Z,77.40
2022-09-06T14:16:26.264Z,78.30
2022-09-06T14:18:52.721Z,77.01
2022-09-06T14:21:19.360Z,76.74
2022-09-06T14:23:50.992Z,81.08
2022-09-06T14:26:18.862Z,79.07
2022-09-06T14:28:45.630Z,80.05
2022-09-06T14:31:14.535Z,81.62
2022-09-06T14:33:41.080Z,81.66
2022-09-06T14:36:09.679Z,80.65
2022-09-06T14:38:38.006Z,82.21
2022-09-06T14:41:05.601Z,81.58
2022-09-06T14:43:32.278Z,80.49
2022-09-06T14:46:04.297Z,78.42
2022-09-06T14:48:31.503Z,82.17
2022-09-06T14:50:58.199Z,80.00
2022-09-06T14:53:39.688Z,81.80
2022-09-06T14:56:08.332Z,83.36
2022-09-06T14:58:37.442Z,84.71
2022-09-06T15:01:15.784Z,78.87
2022-09-06T15:03:48.491Z,76.81
2022-09-06T15:06:16.228Z,76.40
2022-09-06T15:08:42.750Z,77.12
2022-09-06T15:11:09.780Z,77.25
2022-09-06T15:13:37.333Z,78.35
2022-09-06T15:16:05.314Z,78.08
2022-09-06T15:18:33.157Z,79.64
2022-09-06T15:21:09.780Z,80.86
2022-09-06T15:23:36.722Z,82.03
2022-09-06T15:26:03.690Z,82.39
2022-09-06T15:28:30.178Z,83.85
2022-09-06T15:30:56.680Z,84.59
2022-09-06T15:33:23.209Z,85.07
2022-09-06T15:35:55.610Z,86.08
2022-09-06T15:38:22.118Z,87.69
2022-09-06T15:40:48.820Z,87.68
2022-09-06T15:43:15.621Z,85.06
2022-09-06T15:45:50.021Z,85.65
2022-09-06T15:48:17.399Z,84.55
2022-09-06T15:50:51.313Z,82.05
2022-09-06T15:53:19.378Z,85.09
2022-09-06T15:55:57.939Z,87.77
2022-09-06T15:58:26.734Z,86.36
2022-09-06T16:01:21.078Z,89.12
2022-09-06T16:03:49.689Z,89.34
2022-09-06T16:06:26.238Z,89.74
2022-09-06T16:09:05.617Z,91.66
2022-09-06T16:11:33.471Z,91.41
2022-09-06T16:13:59.918Z,90.52
2022-09-06T16:16:26.467Z,89.87
2022-09-06T16:18:53.113Z,87.72
2022-09-06T16:21:25.078Z,89.10
2022-09-06T16:23:54.218Z,90.40
2022-09-06T16:26:21.911Z,89.69
2022-09-06T16:28:50.317Z,89.61
2022-09-06T16:31:17.841Z,90.27
2022-09-06T16:33:45.670Z,89.08
2022-09-06T16:36:13.891Z,89.32
2022-09-06T16:38:41.230Z,88.76
2022-09-06T16:41:25.204Z,88.55
2022-09-06T16:43:52.647Z,88.28
2022-09-06T16:46:21.190Z,88.68
2022-09-06T16:48:55.507Z,88.52
2022-09-06T16:51:24.677Z,86.63
2022-09-06T16:53:52.176Z,85.24
2022-09-06T16:56:21.442Z,86.33
2022-09-06T16:59:08.875Z,87.47
2022-09-06T17:01:37.354Z,87.83
2022-09-06T17:04:04.681Z,89.05
2022-09-06T17:06:33.226Z,88.81
2022-09-06T17:08:59.869Z,89.35
2022-09-06T17:11:28.226Z,89.42
2022-09-06T17:13:56.607Z,89.73
2022-09-06T17:16:42.515Z,89.27
2022-09-06T17:19:09.942Z,89.54
2022-09-06T17:21:37.409Z,90.40
2022-09-06T17:24:05.214Z,91.36
2022-09-06T17:26:33.785Z,89.72
2022-09-06T17:29:00.585Z,91.80
2022-09-06T17:31:27.249Z,90.28
2022-09-06T17:33:54.492Z,88.37
2022-09-06T17:36:32.277Z,90.09
2022-09-06T17:39:13.885Z,90.80
2022-09-06T17:41:42.382Z,91.29
2022-09-06T17:44:11.093Z,91.40
2022-09-06T17:46:47.568Z,90.70
2022-09-06T17:49:19.191Z,90.00
2022-09-06T17:51:46.723Z,88.48
2022-09-06T17:54:14.724Z,87.55
2022-09-06T17:56:41.345Z,88.45
2022-09-06T17:59:11.146Z,89.33
2022-09-06T18:01:38.575Z,90.32
2022-09-06T18:04:06.647Z,90.64
2022-09-06T18:06:34.107Z,91.38
2022-09-06T18:09:07.110Z,92.06
2022-09-06T18:11:33.854Z,93.08
2022-09-06T18:14:02.876Z,93.55
2022-09-06T18:16:30.634Z,94.11
2022-09-06T18:19:00.238Z,94.48
2022-09-06T18:21:28.306Z,95.07
2022-09-06T18:23:55.963Z,96.20
2022-09-06T18:26:22.842Z,95.76
2022-09-06T18:28:50.136Z,95.46
2022-09-06T18:31:19.008Z,96.26
2022-09-06T18:33:45.666Z,96.73
2022-09-06T18:36:13.333Z,97.20
2022-09-06T18:38:42.701Z,97.26
2022-09-06T18:41:30.978Z,96.66
2022-09-06T18:44:02.480Z,96.10
2022-09-06T18:46:34.055Z,96.43
2022-09-06T18:49:01.126Z,96.79
2022-09-06T18:51:28.318Z,95.95
2022-09-06T18:53:57.007Z,95.21
2022-09-06T18:56:24.378Z,95.12
2022-09-06T18:58:54.726Z,96.04
2022-09-06T19:01:21.872Z,96.80
2022-09-06T19:03:48.462Z,97.56
2022-09-06T19:06:17.125Z,97.71
2022-09-06T19:08:44.414Z,98.94
2022-09-06T19:11:13.747Z,99.37
2022-09-06T19:13:44.120Z,99.71
2022-09-06T19:16:13.010Z,99.77
2022-09-06T19:18:40.691Z,99.15
2022-09-06T19:21:11.219Z,99.98
2022-09-06T19:23:40.243Z,100.00
2022-09-06T19:26:13.984Z,98.96
2022-09-06T19:28:41.203Z,99.52
2022-09-06T19:31:13.238Z,99.14
2022-09-06T19:33:40.957Z,99.44
2022-09-06T19:36:11.854Z,99.58
2022-09-06T19:39:01.963Z,99.21
2022-09-06T19:41:27.394Z,97.81
2022-09-06T19:43:55.561Z,98.91
2022-09-06T19:46:23.207Z,98.13
2022-09-06T19:48:51.780Z,98.16
2022-09-06T19:51:19.361Z,98.03
2022-09-06T19:53:52.991Z,97.90
2022-09-06T19:56:26.065Z,99.08
2022-09-06T19:58:53.765Z,99.75
2022-09-06T20:01:20.241Z,99.58
2022-09-06T20:03:46.873Z,99.29
2022-09-06T20:06:13.404Z,98.51
2022-09-06T20:08:40.435Z,98.92
2022-09-06T20:11:09.592Z,97.85
2022-09-06T20:13:37.571Z,97.36
2022-09-06T20:16:05.740Z,97.00
2022-09-06T20:18:32.330Z,96.83
2022-09-06T20:21:01.370Z,96.55
2022-09-06T20:23:29.118Z,96.14
2022-09-06T20:26:07.636Z,96.00
2022-09-06T20:28:34.881Z,96.38
2022-09-06T20:31:07.504Z,96.64
2022-09-06T20:33:34.981Z,97.22
2022-09-06T20:36:03.943Z,97.45
2022-09-06T20:38:31.612Z,98.17
2022-09-06T20:41:00.260Z,98.52
2022-09-06T20:43:26.778Z,100.00
2022-09-06T20:45:53.939Z,100.00
2022-09-06T20:48:20.405Z,100.00
2022-09-06T20:50:46.929Z,99.81
2022-09-06T20:53:13.369Z,99.42
2022-09-06T20:55:39.810Z,98.51
2022-09-06T20:58:06.256Z,97.29
2022-09-06T21:00:33.208Z,99.34
2022-09-06T21:02:59.727Z,96.60
2022-09-06T21:05:26.244Z,97.11
2022-09-06T21:07:52.671Z,98.84
2022-09-06T21:10:19.120Z,98.16
2022-09-06T21:12:46.130Z,97.78
2022-09-06T21:15:12.597Z,99.46
2022-09-06T21:17:39.192Z,100.00
2022-09-06T21:20:06.649Z,100.00
2022-09-06T21:22:33.204Z,100.00
2022-09-06T21:24:59.640Z,99.75
2022-09-06T21:27:26.085Z,100.00
2022-09-06T21:29:52.554Z,100.00
2022-09-06T21:32:19.053Z,100.00
2022-09-06T21:34:45.505Z,99.95
2022-09-06T21:37:11.940Z,98.96
2022-09-06T21:39:39.065Z,98.41
2022-09-06T21:42:05.907Z,98.58
2022-09-06T21:44:33.449Z,97.83
2022-09-06T21:46:59.986Z,97.92
2022-09-06T21:49:26.448Z,98.32
2022-09-06T21:51:52.871Z,99.41
2022-09-06T21:54:19.309Z,100.00
2022-09-06T21:56:46.616Z,100.00
2022-09-06T21:59:13.076Z,100.00
2022-09-06T22:01:40.666Z,100.00
2022-09-06T22:04:07.533Z,100.00
2022-09-06T22:06:35.421Z,100.00
2022-09-06T22:09:10.524Z,100.00
2022-09-06T22:11:41.110Z,100.00
2022-09-06T22:14:10.044Z,100.00
2022-09-06T22:16:38.320Z,100.00
2022-09-06T22:19:06.595Z,100.00
2022-09-06T22:21:33.786Z,100.00
2022-09-06T22:24:06.345Z,100.00
2022-09-06T22:26:34.902Z,100.00
2022-09-06T22:29:04.923Z,100.00
2022-09-06T22:31:32.896Z,100.00
2022-09-06T22:34:00.281Z,100.00
2022-09-06T22:36:27.170Z,100.00
2022-09-06T22:38:57.377Z,100.00
2022-09-06T22:41:25.721Z,100.00
2022-09-06T22:43:52.292Z,100.00
2022-09-06T22:46:18.858Z,100.00
2022-09-06T22:48:45.351Z,100.00
2022-09-06T22:51:11.838Z,99.80
2022-09-06T22:53:38.374Z,99.70
2022-09-06T22:56:05.067Z,99.80
2022-09-06T22:58:32.798Z,100.00
2022-09-06T23:01:06.724Z,100.00
2022-09-06T23:03:33.428Z,100.00
2022-09-06T23:06:00.796Z,100.00
2022-09-06T23:08:27.265Z,100.00
2022-09-06T23:10:53.747Z,99.09
2022-09-06T23:13:20.196Z,98.57
2022-09-06T23:15:47.649Z,98.47
2022-09-06T23:18:15.012Z,98.47
2022-09-06T23:20:41.480Z,98.06
2022-09-06T23:23:08.292Z,98.58
2022-09-06T23:25:38.862Z,99.32
2022-09-06T23:28:05.886Z,100.00
2022-09-06T23:30:32.532Z,100.00
2022-09-06T23:32:58.998Z,99.05
2022-09-06T23:35:25.516Z,98.82
2022-09-06T23:37:52.208Z,99.57
2022-09-06T23:40:19.575Z,99.84
2022-09-06T23:42:46.441Z,100.00
2022-09-06T23:45:13.222Z,100.00
2022-09-06T23:47:39.682Z,100.00
2022-09-06T23:50:07.224Z,100.00
2022-09-06T23:52:33.717Z,100.00
2022-09-06T23:55:00.192Z,100.00
2022-09-06T23:57:26.734Z,100.00
2022-09-06T23:59:53.166Z,100.00
